Time;durP1;ratioP1;P1;durP2;ratioP2;P2;SDS_P1;SDS_P2;PMS_P1;PMS_P2;Temp;Humidity;BMP_temperature;BMP_pressure;BME280_temperature;BME280_humidity;BME280_pressure;Samples;Min_cycle;Max_cycle;Signal;HPM_P1;HPM_P2
2022/07/21 00:00:33;;;;;;;21.50;8.90;;;22.60;99.90;;;;;;5157449;27;20463;-82
2022/07/21 00:03:01;;;;;;;19.37;8.73;;;22.50;99.90;;;;;;5121588;27;20088;-81
2022/07/21 00:05:27;;;;;;;15.05;6.95;;;22.50;99.90;;;;;;5157397;27;20148;-84
2022/07/21 00:07:53;;;;;;;14.37;7.20;;;22.40;99.90;;;;;;5121300;27;20121;-83
2022/07/21 00:10:21;;;;;;;13.83;7.47;;;22.30;99.90;;;;;;5138550;27;20453;-83
2022/07/21 00:12:47;;;;;;;15.80;6.85;;;22.40;99.90;;;;;;5138164;27;20050;-83
2022/07/21 00:15:13;;;;;;;14.23;7.07;;;22.30;99.90;;;;;;5157250;27;20091;-83
2022/07/21 00:17:39;;;;;;;;;;;22.50;99.90;;;;;;5157223;27;20474;-82
2022/07/21 00:20:06;;;;;;;11.32;6.32;;;22.40;99.90;;;;;;5138561;27;19919;-82
2022/07/21 00:22:32;;;;;;;11.93;7.10;;;22.30;99.90;;;;;;5156919;27;20440;-83
2022/07/21 00:24:58;;;;;;;13.87;7.50;;;22.30;99.90;;;;;;5138235;27;20034;-83
2022/07/21 00:27:24;;;;;;;15.23;8.03;;;22.30;99.90;;;;;;5156576;27;20134;-83
2022/07/21 00:29:50;;;;;;;12.63;8.07;;;22.30;99.90;;;;;;5138400;27;20039;-82
2022/07/21 00:32:16;;;;;;;13.17;7.70;;;22.30;99.90;;;;;;5138455;27;20052;-83
2022/07/21 00:34:41;;;;;;;14.07;8.27;;;22.20;99.90;;;;;;5120915;27;20046;-82
2022/07/21 00:37:07;;;;;;;14.43;7.80;;;22.10;99.90;;;;;;5156555;27;20042;-83
2022/07/21 00:39:32;;;;;;;15.50;8.63;;;22.10;99.90;;;;;;5156543;27;20425;-82
2022/07/21 00:41:58;;;;;;;13.43;8.10;;;21.90;99.90;;;;;;5137776;27;20380;-83
2022/07/21 00:44:26;;;;;;;12.87;9.10;;;21.80;99.90;;;;;;5120855;27;20376;-83
2022/07/21 00:46:53;;;;;;;13.95;8.50;;;21.80;99.90;;;;;;5137796;27;20042;-83
2022/07/21 00:49:19;;;;;;;12.82;7.95;;;21.80;99.90;;;;;;5138032;27;20083;-83
2022/07/21 00:51:45;;;;;;;12.98;8.80;;;21.80;99.90;;;;;;5120364;27;20053;-83
2022/07/21 00:54:12;;;;;;;12.85;8.25;;;21.80;99.90;;;;;;5120484;27;20042;-85
2022/07/21 00:56:39;;;;;;;14.40;8.45;;;21.70;99.90;;;;;;5137301;27;20045;-84
2022/07/21 00:59:05;;;;;;;12.02;8.38;;;21.70;99.90;;;;;;5137838;27;20038;-84
2022/07/21 01:01:30;;;;;;;11.97;7.87;;;21.70;99.90;;;;;;5137730;27;20039;-85
2022/07/21 01:03:57;;;;;;;10.90;8.10;;;21.60;99.90;;;;;;5137806;27;20086;-84
2022/07/21 01:06:25;;;;;;;13.30;8.90;;;21.90;99.90;;;;;;5120365;27;20042;-84
2022/07/21 01:08:51;;;;;;;10.63;8.35;;;21.60;99.90;;;;;;5137345;27;20094;-84
2022/07/21 01:11:20;;;;;;;12.18;8.13;;;21.50;99.90;;;;;;5155881;27;20556;-85
2022/07/21 01:13:46;;;;;;;13.73;8.40;;;21.80;99.90;;;;;;5137115;27;20146;-85
2022/07/21 01:16:11;;;;;;;12.68;8.10;;;21.60;99.90;;;;;;5137380;27;20122;-83
2022/07/21 01:18:37;;;;;;;13.83;9.00;;;21.50;99.90;;;;;;5120448;27;20172;-84
2022/07/21 01:21:25;;;;;;;15.93;8.90;;;21.60;99.90;;;;;;5155065;27;20034;-84
2022/07/21 01:23:51;;;;;;;15.95;9.63;;;21.50;99.90;;;;;;5137008;27;20767;-83
2022/07/21 01:26:16;;;;;;;13.60;8.33;;;21.50;99.90;;;;;;5120232;27;20141;-83
2022/07/21 01:28:42;;;;;;;13.63;8.27;;;21.50;99.90;;;;;;5155704;27;20497;-83
2022/07/21 01:31:07;;;;;;;11.00;7.77;;;21.50;99.90;;;;;;5155845;27;20039;-83
2022/07/21 01:33:33;;;;;;;12.80;8.77;;;21.50;99.90;;;;;;5155742;27;20042;-82
2022/07/21 01:35:58;;;;;;;11.00;8.20;;;21.50;99.90;;;;;;5155510;27;20530;-82
2022/07/21 01:43:52;;;;;;;11.25;8.30;;;21.50;99.90;;;;;;5155557;27;20038;-82
2022/07/21 01:46:18;;;;;;;13.30;9.03;;;21.50;99.90;;;;;;5136778;27;20038;-83
2022/07/21 01:48:44;;;;;;;12.77;9.07;;;21.50;99.90;;;;;;5119670;27;20091;-82
2022/07/21 01:51:10;;;;;;;14.48;9.15;;;21.50;99.90;;;;;;5136465;27;20255;-82
2022/07/21 01:53:36;;;;;;;14.30;10.03;;;21.40;99.90;;;;;;5155152;27;20042;-82
2022/07/21 01:56:01;;;;;;;16.83;10.70;;;21.40;99.90;;;;;;5155361;27;20293;-82
2022/07/21 01:58:27;;;;;;;13.47;9.77;;;21.30;99.90;;;;;;5155401;27;20272;-82
2022/07/21 02:00:52;;;;;;;18.47;11.33;;;21.20;99.90;;;;;;5155404;27;20114;-82
2022/07/21 02:03:18;;;;;;;13.10;8.97;;;21.10;99.90;;;;;;5136792;27;20035;-81
2022/07/21 02:05:44;;;;;;;15.03;10.60;;;21.10;99.90;;;;;;5155001;27;20106;-80
2022/07/21 02:08:09;;;;;;;13.37;9.57;;;21.00;99.90;;;;;;5155265;27;20397;-80
2022/07/21 02:10:35;;;;;;;13.67;10.30;;;21.00;99.90;;;;;;5155309;27;20053;-80
2022/07/21 02:13:03;;;;;;;12.65;9.73;;;21.00;99.90;;;;;;5154800;27;20055;-82
2022/07/21 02:15:29;;;;;;;13.88;10.30;;;21.00;99.90;;;;;;5154984;27;20046;-82
2022/07/21 02:17:55;;;;;;;11.40;9.15;;;21.00;99.90;;;;;;5154962;27;20114;-82
2022/07/21 02:20:21;;;;;;;14.05;9.15;;;21.10;99.90;;;;;;5155040;27;20042;-82
2022/07/21 02:22:47;;;;;;;10.30;8.70;;;21.00;99.90;;;;;;5155092;27;20478;-82
2022/07/21 02:25:13;;;;;;;;;;;21.00;99.90;;;;;;5155385;27;20046;-83
2022/07/21 02:27:42;;;;;;;9.52;7.30;;;21.00;99.90;;;;;;5154972;27;19915;-83
2022/07/21 02:30:08;;;;;;;7.95;7.00;;;20.90;99.90;;;;;;5155070;27;20042;-83
2022/07/21 02:32:33;;;;;;;9.95;7.25;;;20.90;99.90;;;;;;5154890;27;20043;-83
2022/07/21 02:34:59;;;;;;;7.27;5.47;;;21.00;99.90;;;;;;5140252;27;20038;-83
2022/07/21 02:37:24;;;;;;;7.73;6.07;;;21.10;99.90;;;;;;5123161;27;20039;-83
2022/07/21 02:39:50;;;;;;;8.23;6.57;;;20.90;99.90;;;;;;5140555;27;20071;-83
2022/07/21 02:42:16;;;;;;;7.30;6.40;;;21.00;99.90;;;;;;5140285;27;20431;-84
2022/07/21 02:44:41;;;;;;;9.27;7.97;;;20.80;99.90;;;;;;5140284;27;20030;-84
2022/07/21 02:47:07;;;;;;;8.33;7.00;;;20.80;99.90;;;;;;5140302;27;20038;-83
2022/07/21 02:49:32;;;;;;;9.73;6.47;;;20.70;99.90;;;;;;5158763;27;20534;-83
2022/07/21 02:51:58;;;;;;;9.47;7.13;;;20.70;99.90;;;;;;5140058;27;20031;-83
2022/07/21 02:54:23;;;;;;;7.73;6.10;;;20.70;99.90;;;;;;5123024;27;20095;-83
2022/07/21 02:56:49;;;;;;;11.90;7.83;;;20.60;99.90;;;;;;5158397;27;20595;-83
2022/07/21 02:59:15;;;;;;;9.30;7.73;;;20.50;99.90;;;;;;5122857;27;20031;-82
2022/07/21 03:01:41;;;;;;;9.13;7.10;;;20.50;99.90;;;;;;5140081;27;20272;-83
2022/07/21 03:04:06;;;;;;;10.47;8.23;;;20.50;99.90;;;;;;5139664;27;20030;-82
2022/07/21 03:06:32;;;;;;;8.33;7.47;;;20.50;99.90;;;;;;5158576;27;20041;-83
2022/07/21 03:08:57;;;;;;;9.60;8.47;;;20.50;99.90;;;;;;5139813;27;20046;-82
2022/07/21 03:11:23;;;;;;;11.40;9.03;;;20.50;99.90;;;;;;5158203;27;20099;-82
2022/07/21 03:13:49;;;;;;;10.43;9.27;;;20.50;99.90;;;;;;5139550;27;20058;-81
2022/07/21 03:16:15;;;;;;;11.03;8.67;;;20.50;99.90;;;;;;5139366;27;20494;-82
2022/07/21 03:18:41;;;;;;;11.40;9.47;;;20.50;99.90;;;;;;5158287;27;20385;-81
2022/07/21 03:21:07;;;;;;;9.95;8.95;;;20.50;99.90;;;;;;5158332;27;20105;-82
2022/07/21 03:23:33;;;;;;;13.05;10.75;;;20.50;99.90;;;;;;5122370;27;20026;-81
2022/07/21 03:25:58;;;;;;;12.50;10.83;;;20.70;99.90;;;;;;5158321;27;20122;-81
2022/07/21 03:28:24;;;;;;;12.10;10.77;;;20.50;99.90;;;;;;5157948;27;20123;-82
2022/07/21 03:30:49;;;;;;;16.13;12.60;;;20.50;99.90;;;;;;5157981;27;20038;-81
2022/07/21 03:33:15;;;;;;;13.63;12.00;;;20.50;99.90;;;;;;5139471;27;20038;-82
2022/07/21 03:35:41;;;;;;;14.13;11.70;;;20.40;99.90;;;;;;5139225;27;20146;-83
2022/07/21 03:38:07;;;;;;;13.73;12.05;;;20.40;99.90;;;;;;5157931;27;20039;-82
2022/07/21 03:40:36;;;;;;;15.93;13.52;;;20.40;99.90;;;;;;5157840;27;20091;-82
2022/07/21 03:43:04;;;;;;;14.85;12.70;;;20.40;99.90;;;;;;5157709;27;20431;-81
2022/07/21 03:45:30;;;;;;;17.27;14.13;;;20.40;99.90;;;;;;5157153;27;20039;-82
2022/07/21 03:47:57;;;;;;;16.02;12.98;;;20.40;99.90;;;;;;5139149;27;20038;-81
2022/07/21 03:50:23;;;;;;;17.73;14.63;;;20.40;99.90;;;;;;5157681;27;20386;-82
2022/07/21 03:52:49;;;;;;;16.33;13.88;;;20.40;99.90;;;;;;5139182;27;20042;-82
2022/07/21 03:55:17;;;;;;;18.13;16.23;;;20.40;99.90;;;;;;5121749;27;20406;-82
2022/07/21 03:57:46;;;;;;;20.23;16.95;;;20.40;99.90;;;;;;5157585;27;20049;-82
2022/07/21 04:00:18;;;;;;;18.33;16.17;;;20.50;99.90;;;;;;5157092;27;20498;-82
2022/07/21 04:02:44;;;;;;;16.38;13.95;;;20.40;99.90;;;;;;5157048;27;20079;-81
2022/07/21 04:05:14;;;;;;;;;;;20.40;99.90;;;;;;5157903;27;20038;-81
2022/07/21 04:07:41;;;;;;;18.83;15.63;;;20.40;99.90;;;;;;5157421;27;19915;-82
2022/07/21 04:10:13;;;;;;;19.95;16.65;;;20.40;99.90;;;;;;5138957;27;20118;-81
2022/07/21 04:12:39;;;;;;;19.58;17.35;;;20.40;99.90;;;;;;5156834;27;20061;-82
2022/07/21 04:15:07;;;;;;;20.33;18.20;;;20.40;99.90;;;;;;5156689;27;20490;-82
2022/07/21 04:17:34;;;;;;;23.65;19.92;;;20.40;99.90;;;;;;5138611;27;20163;-82
2022/07/21 04:19:59;;;;;;;;;;;20.50;99.90;;;;;;5139190;27;20035;-82
2022/07/21 04:22:25;;;;;;;20.95;18.48;;;20.40;99.90;;;;;;5138279;27;19921;-82
2022/07/21 04:24:50;;;;;;;22.57;20.20;;;20.40;99.90;;;;;;5138584;27;20042;-82
2022/07/21 04:27:16;;;;;;;24.00;21.60;;;20.40;99.90;;;;;;5138204;27;20051;-82
2022/07/21 04:29:42;;;;;;;21.55;19.52;;;20.40;99.90;;;;;;5156597;27;20038;-82
2022/07/21 04:32:08;;;;;;;21.80;19.63;;;20.40;99.90;;;;;;5138396;27;20042;-82
2022/07/21 04:34:33;;;;;;;24.87;22.27;;;20.40;99.90;;;;;;5156876;27;20164;-82
2022/07/21 04:36:59;;;;;;;23.13;20.90;;;20.40;99.90;;;;;;5138411;27;20043;-81
2022/07/21 04:39:24;;;;;;;23.10;19.20;;;20.40;99.90;;;;;;5138342;27;20039;-81
2022/07/21 04:41:50;;;;;;;22.23;19.93;;;20.30;99.90;;;;;;5138340;27;20038;-81
2022/07/21 04:44:16;;;;;;;21.07;18.93;;;20.30;99.90;;;;;;5137958;27;20049;-81
2022/07/21 04:46:41;;;;;;;19.27;17.00;;;20.30;99.90;;;;;;5137763;27;20039;-81
2022/07/21 04:49:07;;;;;;;18.67;16.67;;;20.30;99.90;;;;;;5156625;27;20376;-81
2022/07/21 04:51:32;;;;;;;17.00;15.33;;;20.20;99.90;;;;;;5156551;27;20042;-83
2022/07/21 04:53:58;;;;;;;18.53;16.63;;;20.10;99.90;;;;;;5138055;27;20045;-82
2022/07/21 04:56:23;;;;;;;19.77;17.77;;;20.20;99.90;;;;;;5155183;27;20039;-83
2022/07/21 04:58:49;;;;;;;19.23;17.20;;;20.10;99.90;;;;;;5137904;27;20122;-85
2022/07/21 05:01:17;;;;;;;19.20;17.03;;;20.20;99.90;;;;;;5137745;27;20034;-83
2022/07/21 05:03:43;;;;;;;18.60;16.70;;;20.20;99.90;;;;;;5137473;27;20081;-82
2022/07/21 05:06:09;;;;;;;21.30;17.43;;;20.20;99.90;;;;;;5137891;27;20062;-83
2022/07/21 05:08:34;;;;;;;20.37;18.37;;;20.30;99.90;;;;;;5155955;27;20031;-81
2022/07/21 05:11:00;;;;;;;19.57;17.60;;;20.30;99.90;;;;;;5120334;27;20065;-85
2022/07/21 05:13:26;;;;;;;17.93;16.20;;;20.30;99.90;;;;;;5119926;27;20555;-81
2022/07/21 05:15:51;;;;;;;24.33;20.10;;;20.30;99.90;;;;;;5137604;27;20050;-82
2022/07/21 05:18:17;;;;;;;21.80;19.57;;;20.40;99.90;;;;;;5137234;27;20046;-82
2022/07/21 05:20:42;;;;;;;22.23;19.57;;;20.50;99.90;;;;;;5156046;27;20118;-83
2022/07/21 05:23:08;;;;;;;20.20;18.17;;;20.40;99.90;;;;;;5137330;27;20031;-82
2022/07/21 05:25:35;;;;;;;20.47;18.37;;;20.40;99.90;;;;;;5137058;27;20035;-81
2022/07/21 05:28:02;;;;;;;19.83;17.83;;;20.40;99.90;;;;;;5119991;27;20412;-83
2022/07/21 05:30:28;;;;;;;21.20;18.80;;;20.40;99.90;;;;;;5119962;27;20042;-81
2022/07/21 05:32:54;;;;;;;18.23;16.20;;;20.60;99.90;;;;;;5136997;27;20046;-81
2022/07/21 05:35:19;;;;;;;18.23;16.40;;;20.80;99.90;;;;;;5136567;27;20077;-82
2022/07/21 05:37:45;;;;;;;18.97;16.87;;;20.50;99.90;;;;;;5155601;27;20119;-85
2022/07/21 05:40:11;;;;;;;18.47;16.63;;;20.50;99.90;;;;;;5136888;27;20042;-81
2022/07/21 05:42:37;;;;;;;18.75;16.77;;;20.50;99.90;;;;;;5136921;27;20486;-83
2022/07/21 05:45:04;;;;;;;18.70;16.67;;;20.60;99.90;;;;;;5135723;27;20126;-81
2022/07/21 05:47:32;;;;;;;;;;;20.60;99.90;;;;;;5155826;27;20042;-81
2022/07/21 05:49:58;;;;;;;21.10;19.02;;;20.60;99.90;;;;;;5155310;27;20358;-83
2022/07/21 05:52:24;;;;;;;19.77;17.60;;;20.60;99.90;;;;;;5137031;27;20101;-83
2022/07/21 05:54:50;;;;;;;18.83;16.92;;;20.60;99.90;;;;;;5136627;27;20502;-81
2022/07/21 05:57:16;;;;;;;17.90;16.20;;;20.60;99.90;;;;;;5136503;27;20439;-81
2022/07/21 05:59:41;;;;;;;20.88;18.77;;;20.50;99.90;;;;;;5119383;27;20074;-80
2022/07/21 06:02:08;;;;;;;21.50;18.23;;;20.50;99.90;;;;;;5119434;27;20073;-84
2022/07/21 06:04:33;;;;;;;19.83;17.88;;;20.70;99.90;;;;;;5119489;27;20545;-78
2022/07/21 06:06:59;;;;;;;19.73;17.70;;;20.60;99.90;;;;;;5119475;27;20126;-83
2022/07/21 06:09:24;;;;;;;21.73;18.67;;;20.40;99.90;;;;;;5136771;27;20031;-83
2022/07/21 06:11:56;;;;;;;20.23;18.13;;;20.30;99.90;;;;;;5119466;27;20072;-84
2022/07/21 06:14:23;;;;;;;21.90;19.63;;;20.30;99.90;;;;;;5119795;27;20050;-83
2022/07/21 06:16:54;;;;;;;21.17;18.87;;;20.30;99.90;;;;;;5154389;27;20039;-83
2022/07/21 06:19:23;;;;;;;21.85;18.55;;;20.20;99.90;;;;;;5118363;27;20038;-82
2022/07/21 06:21:51;;;;;;;24.25;20.35;;;20.20;99.90;;;;;;5136873;27;20077;-81
2022/07/21 06:24:19;;;;;;;21.00;18.80;;;20.20;99.90;;;;;;5136350;27;20066;-83
2022/07/21 06:26:45;;;;;;;22.45;20.08;;;20.30;99.90;;;;;;5154523;27;20486;-82
2022/07/21 06:29:10;;;;;;;22.03;19.73;;;20.20;99.90;;;;;;5119285;27;20083;-82
2022/07/21 06:31:36;;;;;;;23.87;20.40;;;20.30;99.90;;;;;;5155080;27;20035;-79
2022/07/21 06:34:02;;;;;;;22.27;19.83;;;20.20;99.90;;;;;;5136533;27;20088;-80
2022/07/21 06:36:30;;;;;;;24.90;21.27;;;20.20;99.90;;;;;;5136276;27;20030;-81
2022/07/21 06:38:56;;;;;;;22.67;20.38;;;20.20;99.90;;;;;;5155120;27;20394;-77
2022/07/21 06:41:21;;;;;;;21.90;19.43;;;20.30;99.90;;;;;;5155195;27;20026;-77
2022/07/21 06:43:47;;;;;;;22.43;20.17;;;20.40;99.90;;;;;;5154983;27;20062;-84
2022/07/21 06:46:13;;;;;;;21.83;19.57;;;20.40;99.90;;;;;;5119331;27;20125;-86
2022/07/21 06:48:39;;;;;;;23.05;20.63;;;20.40;99.90;;;;;;5119213;27;20031;-82
2022/07/21 06:51:04;;;;;;;21.73;19.63;;;20.50;99.90;;;;;;5119272;27;20482;-80
2022/07/21 06:53:30;;;;;;;23.27;20.90;;;20.50;99.90;;;;;;5155132;27;20490;-79
2022/07/21 06:55:56;;;;;;;20.43;18.43;;;20.50;99.90;;;;;;5153747;27;20033;-83
2022/07/21 06:58:27;;;;;;;26.83;21.53;;;20.50;99.90;;;;;;5174828;27;20431;-84
2022/07/21 07:00:53;;;;;;;19.73;17.77;;;20.60;99.90;;;;;;5136683;27;20075;-81
2022/07/21 07:03:20;;;;;;;22.55;20.23;;;20.60;99.90;;;;;;5136557;27;20121;-88
2022/07/21 07:05:47;;;;;;;23.77;21.27;;;20.70;99.90;;;;;;5119189;27;20034;-85
2022/07/21 07:08:13;;;;;;;24.13;21.73;;;20.70;99.90;;;;;;5136344;27;20039;-82
2022/07/21 07:10:42;;;;;;;23.40;20.90;;;20.90;99.90;;;;;;5154422;27;20470;-85
2022/07/21 07:13:09;;;;;;;23.52;21.13;;;20.90;99.90;;;;;;5116560;28;20439;-82
2022/07/21 07:15:34;;;;;;;19.58;17.65;;;21.20;99.90;;;;;;5134092;28;20050;-84
2022/07/21 07:18:00;;;;;;;23.73;21.33;;;21.00;99.90;;;;;;5115633;28;20414;-83
2022/07/21 07:20:26;;;;;;;23.07;20.70;;;21.00;99.90;;;;;;5101443;27;20071;-84
2022/07/21 07:22:52;;;;;;;;;;;21.10;99.90;;;;;;5120078;27;20042;-83
2022/07/21 07:25:18;;;;;;;22.20;19.95;;;21.20;99.90;;;;;;5102319;27;19915;-83
2022/07/21 07:27:46;;;;;;;22.55;20.25;;;21.20;99.90;;;;;;5119376;27;20035;-84
2022/07/21 07:30:12;;;;;;;25.85;23.27;;;21.20;99.90;;;;;;5101982;27;20631;-85
2022/07/21 07:32:38;;;;;;;25.35;22.70;;;21.30;99.90;;;;;;5101984;27;20407;-85
2022/07/21 07:35:04;;;;;;;23.17;20.58;;;21.40;99.90;;;;;;5159819;27;20045;-83
2022/07/21 07:37:30;;;;;;;25.13;22.67;;;21.50;99.90;;;;;;5142994;27;20046;-86
2022/07/21 07:39:55;;;;;;;24.13;21.53;;;21.60;99.90;;;;;;5142875;27;20065;-83
2022/07/21 07:42:21;;;;;;;23.83;21.50;;;21.80;99.90;;;;;;5160238;27;20049;-84
2022/07/21 07:44:47;;;;;;;24.20;21.60;;;21.80;99.90;;;;;;5160411;27;20389;-83
2022/07/21 07:47:13;;;;;;;22.30;20.02;;;22.00;99.90;;;;;;5160251;27;20039;-84
2022/07/21 07:49:39;;;;;;;22.43;20.07;;;22.10;99.90;;;;;;5160071;27;20129;-83
2022/07/21 07:52:05;;;;;;;22.17;20.07;;;22.20;99.90;;;;;;5142768;27;20077;-87
2022/07/21 07:54:31;;;;;;;19.02;17.23;;;22.20;99.90;;;;;;5143082;27;20034;-87
2022/07/21 07:56:56;;;;;;;21.63;19.60;;;22.40;99.90;;;;;;5163019;27;20035;-86
2022/07/21 07:59:22;;;;;;;21.03;19.03;;;22.60;99.90;;;;;;5157884;27;20274;-85
2022/07/21 08:01:48;;;;;;;19.47;17.47;;;22.60;99.90;;;;;;5121860;27;20038;-82
2022/07/21 08:04:14;;;;;;;17.10;15.37;;;22.90;99.90;;;;;;5137623;27;20041;-85
2022/07/21 08:06:40;;;;;;;;;;;23.10;99.90;;;;;;5121019;27;20380;-87
2022/07/21 08:09:06;;;;;;;18.42;16.63;;;23.20;99.90;;;;;;5138548;27;19922;-86
2022/07/21 08:11:32;;;;;;;19.48;17.65;;;23.10;99.90;;;;;;5121541;27;20383;-87
2022/07/21 08:13:58;;;;;;;19.83;17.93;;;23.00;99.90;;;;;;5118148;27;20039;-82
2022/07/21 08:16:23;;;;;;;21.83;18.77;;;22.80;99.90;;;;;;5136454;27;20121;-83
2022/07/21 08:18:49;;;;;;;21.47;19.37;;;22.70;99.90;;;;;;5150922;27;20027;-82
2022/07/21 08:21:14;;;;;;;21.13;19.13;;;22.60;99.90;;;;;;5156798;27;20045;-82
2022/07/21 08:23:40;;;;;;;21.97;19.77;;;22.40;99.90;;;;;;5138924;27;20041;-83
2022/07/21 08:26:05;;;;;;;22.07;19.83;;;22.20;99.90;;;;;;5138761;27;20038;-83
2022/07/21 08:28:32;;;;;;;23.67;21.37;;;21.90;99.90;;;;;;5157193;27;20467;-83
2022/07/21 08:30:57;;;;;;;22.80;20.70;;;21.80;99.90;;;;;;5138349;27;20050;-83
2022/07/21 08:33:23;;;;;;;23.90;21.43;;;21.90;99.90;;;;;;5121612;27;20049;-82
2022/07/21 08:35:48;;;;;;;22.33;20.13;;;21.90;99.90;;;;;;5156775;27;20045;-83
2022/07/21 08:38:14;;;;;;;21.37;19.17;;;22.00;99.90;;;;;;5138139;27;20038;-83
2022/07/21 08:40:44;;;;;;;20.03;18.13;;;22.20;99.90;;;;;;5138109;27;20061;-83
2022/07/21 08:43:12;;;;;;;20.88;18.58;;;22.50;99.90;;;;;;5138061;27;20043;-82
2022/07/21 08:45:39;;;;;;;19.65;17.40;;;22.70;99.90;;;;;;5138442;27;20135;-82
2022/07/21 08:48:05;;;;;;;18.45;16.55;;;23.00;99.90;;;;;;5138081;27;20042;-82
2022/07/21 08:50:34;;;;;;;20.98;17.50;;;23.10;99.90;;;;;;5156729;27;20043;-82
2022/07/21 08:53:00;;;;;;;17.95;16.15;;;23.10;99.90;;;;;;5156652;27;20442;-82
2022/07/21 08:55:30;;;;;;;18.23;16.33;;;23.00;99.90;;;;;;5156692;27;20062;-82
2022/07/21 08:57:55;;;;;;;17.77;15.98;;;22.90;99.90;;;;;;5138037;27;20474;-82
2022/07/21 09:00:21;;;;;;;17.10;15.50;;;22.80;99.90;;;;;;5156606;27;20041;-82
2022/07/21 09:02:46;;;;;;;16.63;15.03;;;22.70;99.90;;;;;;5156534;27;20042;-83
2022/07/21 09:05:12;;;;;;;17.60;15.90;;;22.70;99.90;;;;;;5156341;27;20046;-82
2022/07/21 09:07:49;;;;;;;17.80;15.77;;;23.00;99.90;;;;;;5156476;27;20115;-82
2022/07/21 09:10:15;;;;;;;;;;;22.60;99.90;;;;;;5138001;27;20042;-83
2022/07/21 09:12:52;;;;;;;17.27;15.27;;;22.70;99.90;;;;;;5137375;27;19926;-82
2022/07/21 09:15:21;;;;;;;16.90;15.15;;;22.70;99.90;;;;;;5156294;27;20050;-83
2022/07/21 09:18:02;;;;;;;17.50;15.30;;;22.80;99.90;;;;;;5156195;27;20065;-83
2022/07/21 09:20:28;;;;;;;15.57;13.70;;;22.90;99.90;;;;;;5155730;27;20095;-82
2022/07/21 09:23:11;;;;;;;16.80;15.00;;;23.10;99.90;;;;;;5137684;27;20035;-83
2022/07/21 09:25:41;;;;;;;17.17;15.20;;;23.40;99.90;;;;;;5137387;27;20470;-83
2022/07/21 09:28:25;;;;;;;16.60;14.90;;;23.60;99.90;;;;;;5156055;27;20038;-83
2022/07/21 09:30:55;;;;;;;17.75;15.80;;;23.80;99.90;;;;;;5155975;27;20035;-80
2022/07/21 09:33:31;;;;;;;17.70;15.90;;;24.00;99.90;;;;;;5137433;27;20039;-83
2022/07/21 09:36:10;;;;;;;17.67;15.77;;;24.20;99.90;;;;;;5155966;27;20046;-82
2022/07/21 09:38:51;;;;;;;16.98;15.20;;;24.20;99.90;;;;;;5137189;27;20497;-79
2022/07/21 09:41:21;;;;;;;16.60;14.90;;;24.20;99.90;;;;;;5155749;27;20035;-80
2022/07/21 09:43:50;;;;;;;17.25;15.35;;;24.20;99.90;;;;;;5136682;27;20045;-82
2022/07/21 09:46:22;;;;;;;16.70;14.18;;;24.00;99.90;;;;;;5137271;27;20113;-80
2022/07/21 09:48:52;;;;;;;17.92;15.10;;;23.90;99.90;;;;;;5136865;27;20581;-81
2022/07/21 09:51:25;;;;;;;18.00;15.95;;;23.80;99.90;;;;;;5155531;27;20505;-82
2022/07/21 09:53:52;;;;;;;18.27;16.35;;;23.90;99.90;;;;;;5137034;27;20086;-81
2022/07/21 09:56:19;;;;;;;17.80;16.00;;;23.90;99.90;;;;;;5155550;27;20043;-79
2022/07/21 09:58:48;;;;;;;;;;;23.80;99.90;;;;;;5156002;27;20034;-80
2022/07/21 10:01:14;;;;;;;19.15;17.08;;;23.80;99.90;;;;;;5155555;27;19915;-80
2022/07/21 10:03:43;;;;;;;20.70;18.33;;;23.70;99.90;;;;;;5155464;27;20123;-81
2022/07/21 10:06:09;;;;;;;20.25;17.67;;;23.50;99.90;;;;;;5155428;27;20035;-82
2022/07/21 10:08:37;;;;;;;22.63;20.23;;;23.40;99.90;;;;;;5155409;27;20178;-82
2022/07/21 10:11:03;;;;;;;23.55;20.92;;;23.40;99.90;;;;;;5136605;27;20517;-80
2022/07/21 10:13:28;;;;;;;22.53;20.17;;;23.20;99.90;;;;;;5155056;27;20055;-80
2022/07/21 10:15:54;;;;;;;23.73;20.73;;;23.20;99.90;;;;;;5155228;27;20287;-81
2022/07/21 10:18:23;;;;;;;23.23;20.83;;;23.10;99.90;;;;;;5119978;27;20122;-81
2022/07/21 10:20:57;;;;;;;24.63;21.92;;;23.00;99.90;;;;;;5155340;27;20031;-81
2022/07/21 10:23:35;;;;;;;25.65;22.42;;;22.90;99.90;;;;;;5136854;27;20054;-80
2022/07/21 10:26:02;;;;;;;26.67;23.77;;;22.90;99.90;;;;;;5155315;27;20031;-82
2022/07/21 10:28:28;;;;;;;27.50;24.33;;;22.90;99.90;;;;;;5119408;27;20121;-81
2022/07/21 10:30:57;;;;;;;25.20;22.52;;;22.90;99.90;;;;;;5155229;27;20077;-81
2022/07/21 10:33:45;;;;;;;27.65;24.60;;;23.00;99.90;;;;;;5136755;27;20070;-81
2022/07/21 10:36:34;;;;;;;27.40;24.40;;;22.80;99.90;;;;;;5154868;27;20038;-81
2022/07/21 10:39:09;;;;;;;27.52;24.23;;;22.90;99.90;;;;;;5136608;27;20399;-81
2022/07/21 10:41:40;;;;;;;27.85;24.83;;;23.00;99.90;;;;;;5154987;27;20505;-82
2022/07/21 10:44:43;;;;;;;26.38;23.67;;;23.10;99.90;;;;;;5154952;27;20039;-82
2022/07/21 10:47:10;;;;;;;27.20;24.30;;;23.30;99.90;;;;;;5051051;28;20106;-81
2022/07/21 10:49:53;;;;;;;27.08;24.25;;;23.50;99.90;;;;;;5135675;27;20046;-81
2022/07/21 10:52:38;;;;;;;27.17;23.40;;;23.60;99.90;;;;;;5136700;27;20360;-81
2022/07/21 10:55:10;;;;;;;24.50;21.90;;;23.70;99.90;;;;;;5157242;27;20047;-81
2022/07/21 10:57:47;;;;;;;25.88;21.58;;;23.80;99.90;;;;;;5140118;27;20039;-83
2022/07/21 11:00:33;;;;;;;22.60;20.23;;;23.80;99.90;;;;;;5140601;27;20082;-82
2022/07/21 11:03:12;;;;;;;20.95;18.75;;;23.90;99.90;;;;;;5158654;27;20484;-80
2022/07/21 11:06:03;;;;;;;20.98;18.17;;;24.00;99.90;;;;;;5158804;27;20115;-82
2022/07/21 11:08:44;;;;;;;21.17;19.08;;;24.10;99.90;;;;;;5158638;27;20043;-80
2022/07/21 11:11:15;;;;;;;24.98;21.90;;;24.30;99.90;;;;;;5158745;27;20035;-81
2022/07/21 11:14:03;;;;;;;26.35;20.92;;;24.50;99.90;;;;;;5136297;27;20090;-80
2022/07/21 11:16:49;;;;;;;23.42;20.70;;;24.50;99.90;;;;;;5137870;27;20031;-81
2022/07/21 11:19:45;;;;;;;22.98;20.25;;;24.60;99.90;;;;;;5137815;27;20039;-81
2022/07/21 11:22:17;;;;;;;23.35;19.80;;;24.70;99.90;;;;;;5137846;27;20135;-81
2022/07/21 11:24:52;;;;;;;25.88;21.98;;;24.90;99.90;;;;;;5137524;27;20493;-82
2022/07/21 11:27:20;;;;;;;22.80;20.35;;;25.20;99.90;;;;;;5137700;27;20039;-81
2022/07/21 11:29:48;;;;;;;23.30;18.90;;;25.30;99.90;;;;;;5137661;27;20046;-81
2022/07/21 11:32:15;;;;;;;20.20;18.10;;;25.20;99.90;;;;;;5137272;27;20506;-81
2022/07/21 11:34:46;;;;;;;21.80;19.30;;;25.10;99.90;;;;;;5137551;27;20122;-81
2022/07/21 11:37:14;;;;;;;23.88;18.90;;;25.20;99.90;;;;;;5137564;27;20053;-81
2022/07/21 11:39:40;;;;;;;21.60;19.38;;;25.20;99.90;;;;;;5137457;27;20074;-81
2022/07/21 11:42:08;;;;;;;21.45;18.75;;;25.20;99.90;;;;;;5137538;27;20031;-81
2022/07/21 11:44:34;;;;;;;18.23;15.68;;;25.10;99.90;;;;;;5137356;27;20039;-81
2022/07/21 11:47:02;;;;;;;17.42;15.63;;;25.00;99.90;;;;;;5137261;27;20061;-83
2022/07/21 11:49:31;;;;;;;19.05;16.38;;;24.90;99.90;;;;;;5137307;27;20110;-80
2022/07/21 11:52:03;;;;;;;18.45;15.90;;;24.70;99.90;;;;;;5137216;27;20039;-83
2022/07/21 11:54:44;;;;;;;17.38;15.57;;;24.40;99.90;;;;;;5136024;27;20065;-80
2022/07/21 11:57:10;;;;;;;17.50;15.73;;;24.20;99.90;;;;;;5137015;27;20091;-80
2022/07/21 11:59:40;;;;;;;18.00;15.77;;;24.00;99.90;;;;;;5136902;27;20035;-83
2022/07/21 12:02:10;;;;;;;17.95;14.00;;;23.90;99.90;;;;;;5136040;27;20039;-79
2022/07/21 12:04:37;;;;;;;17.58;13.85;;;23.90;99.90;;;;;;5136695;27;20038;-81
2022/07/21 12:07:07;;;;;;;15.90;13.45;;;23.80;99.90;;;;;;5135357;27;20151;-80
2022/07/21 12:09:33;;;;;;;16.73;13.50;;;23.70;99.90;;;;;;5135766;27;20118;-80
2022/07/21 12:11:59;;;;;;;15.52;13.65;;;23.80;99.90;;;;;;5118113;27;20051;-81
2022/07/21 12:14:45;;;;;;;18.40;13.17;;;23.80;99.90;;;;;;5136927;27;20490;-80
2022/07/21 12:17:12;;;;;;;16.08;13.38;;;23.90;99.90;;;;;;5135364;27;20039;-80
2022/07/21 12:19:38;;;;;;;;;;;24.20;99.90;;;;;;5136984;27;20475;-83
2022/07/21 12:22:04;;;;;;;20.75;16.88;;;24.30;99.90;;;;;;5136608;27;19922;-80
2022/07/21 12:24:53;;;;;;;18.10;15.37;;;24.40;99.90;;;;;;5136517;27;20035;-83
2022/07/21 12:27:19;;;;;;;18.60;15.27;;;24.40;99.90;;;;;;5136473;27;20038;-81
2022/07/21 12:29:45;;;;;;;18.05;14.18;;;24.40;99.90;;;;;;5136598;27;20122;-83
2022/07/21 12:32:11;;;;;;;16.42;14.30;;;24.20;99.90;;;;;;5136430;27;20139;-81
2022/07/21 12:34:51;;;;;;;16.58;13.63;;;24.10;99.90;;;;;;5136453;27;20057;-80
2022/07/21 12:37:17;;;;;;;15.10;13.27;;;24.00;99.90;;;;;;5136263;27;20050;-79
2022/07/21 12:39:58;;;;;;;12.80;9.52;;;23.90;99.90;;;;;;5136318;27;20067;-80
2022/07/21 12:42:38;;;;;;;9.98;8.73;;;23.90;99.90;;;;;;5136274;27;20042;-80